Time;durP1;ratioP1;P1;durP2;ratioP2;P2;SDS_P1;SDS_P2;PMS_P1;PMS_P2;Temp;Humidity;BMP_temperature;BMP_pressure;BME280_temperature;BME280_humidity;BME280_pressure;Samples;Min_cycle;Max_cycle;Signal;HPM_P1;HPM_P2
2023/10/01 00:09:19;;;;;;;3.95;3.30;;;;;;;13.37;61.00;101361.22;21080209;28;20229;-91
2023/10/01 00:19:20;;;;;;;7.13;3.10;;;;;;;13.51;59.05;101356.28;21066628;28;20199;-88
2023/10/01 00:29:23;;;;;;;5.30;2.67;;;;;;;13.42;58.29;101344.09;21047514;28;20217;-89
2023/10/01 00:39:25;;;;;;;5.35;2.97;;;;;;;13.58;58.42;101356.69;21063900;28;20644;-89
2023/10/01 00:49:28;;;;;;;6.63;2.80;;;;;;;13.73;57.98;101351.75;21065510;28;20313;-85
2023/10/01 00:59:32;;;;;;;4.32;2.38;;;;;;;13.82;57.10;101347.81;21080993;28;20309;-89
2023/10/01 01:09:36;;;;;;;4.13;2.65;;;;;;;13.21;58.71;101334.47;21069947;28;20264;-88
2023/10/01 01:19:39;;;;;;;5.00;2.90;;;;;;;13.37;58.61;101332.13;21076497;28;20575;-87
2023/10/01 01:29:44;;;;;;;4.88;2.78;;;;;;;13.41;58.53;101333.94;21054269;28;20230;-79
2023/10/01 01:39:48;;;;;;;5.13;2.97;;;;;;;13.30;59.70;101343.84;21064410;28;20205;-89
2023/10/01 01:50:06;;;;;;;6.28;2.92;;;;;;;13.17;59.73;101316.47;21036704;28;1120261;-89
2023/10/01 02:00:13;;;;;;;6.13;3.42;;;;;;;12.77;61.35;101301.41;21083391;28;20205;-90
2023/10/01 02:10:16;;;;;;;4.75;3.20;;;;;;;13.04;61.05;101306.09;21069411;28;20213;-90
2023/10/01 02:20:22;;;;;;;5.13;3.63;;;;;;;12.65;62.16;101293.50;21075118;28;20285;-90
2023/10/01 02:30:26;;;;;;;7.13;3.50;;;;;;;12.40;62.32;101296.91;21036215;28;20630;-89
2023/10/01 02:40:36;;;;;;;5.93;3.10;;;;;;;12.72;61.19;101299.56;21090616;28;20193;-89
2023/10/01 02:50:39;;;;;;;5.90;3.13;;;;;;;12.90;60.80;101295.69;21088201;28;20218;-80
2023/10/01 03:00:42;;;;;;;6.90;3.67;;;;;;;12.84;59.61;101291.34;21069426;28;20202;-78
2023/10/01 03:10:47;;;;;;;5.60;3.20;;;;;;;13.09;59.42;101301.16;21072048;28;20223;-78
2023/10/01 03:21:07;;;;;;;5.35;2.72;;;;;;;12.49;61.17;101307.16;21064447;28;20269;-77
2023/10/01 03:31:12;;;;;;;5.07;2.20;;;;;;;12.52;60.82;101314.16;21066678;28;20257;-83
2023/10/01 03:41:22;;;;;;;4.95;2.75;;;;;;;12.80;58.86;101312.91;21063564;28;20195;-83
2023/10/01 03:51:52;;;;;;;5.13;2.75;;;;;;;12.75;58.54;101313.00;21064140;28;20230;-89
2023/10/01 04:02:00;;;;;;;6.50;2.63;;;;;;;12.67;59.08;101308.16;21062541;28;20187;-82
2023/10/01 04:22:21;;;;;;;4.13;2.70;;;;;;;13.13;57.50;101304.97;21058397;28;20282;-80
2023/10/01 04:32:27;;;;;;;5.18;2.33;;;;;;;13.08;58.03;101296.66;21076525;28;20233;-87
2023/10/01 04:42:28;;;;;;;3.58;2.55;;;;;;;12.98;58.72;101309.06;21075387;28;20198;-88
2023/10/01 04:52:32;;;;;;;4.00;2.08;;;;;;;13.28;57.23;101303.75;21052231;28;20313;-91
2023/10/01 05:02:36;;;;;;;7.30;2.80;;;;;;;13.10;57.76;101302.00;21079289;28;20194;-90
2023/10/01 05:12:43;;;;;;;5.00;2.88;;;;;;;13.02;57.91;101302.75;21053130;28;20222;-90
2023/10/01 05:22:50;;;;;;;4.27;2.40;;;;;;;13.43;56.40;101311.84;21068971;28;20199;-87
2023/10/01 05:32:54;;;;;;;6.60;2.97;;;;;;;12.76;58.25;101309.03;21044737;28;20249;-90
2023/10/01 05:43:12;;;;;;;4.28;2.45;;;;;;;13.29;56.48;101316.72;21084596;28;20298;-88
2023/10/01 05:53:15;;;;;;;4.53;2.63;;;;;;;13.21;56.38;101311.88;21080601;28;20655;-88
2023/10/01 06:03:17;;;;;;;5.18;2.70;;;;;;;13.38;55.83;101314.00;21073034;28;20584;-89
2023/10/01 06:13:21;;;;;;;4.40;2.63;;;;;;;13.06;56.66;101324.41;21063780;28;20226;-90
2023/10/01 06:23:23;;;;;;;5.63;2.85;;;;;;;13.07;56.89;101322.41;21077621;28;20211;-89
2023/10/01 06:33:29;;;;;;;5.83;3.17;;;;;;;13.30;56.61;101315.56;21089410;28;20234;-85
2023/10/01 06:43:32;;;;;;;6.60;3.25;;;;;;;13.61;56.28;101313.63;21099189;28;20587;-88
2023/10/01 06:53:45;;;;;;;8.50;3.87;;;;;;;13.86;54.70;101311.22;21085339;27;20665;-88
2023/10/01 07:03:47;;;;;;;7.70;3.27;;;;;;;13.69;55.40;101312.81;21094024;28;20566;-86
2023/10/01 07:13:52;;;;;;;8.30;3.93;;;;;;;14.31;54.57;101329.66;21091160;28;20576;-88
2023/10/01 07:23:54;;;;;;;7.72;4.18;;;;;;;14.41;55.49;101331.38;21097591;28;20202;-86
2023/10/01 07:34:01;;;;;;;9.27;5.35;;;;;;;14.12;56.98;101323.44;21081503;28;20548;-82
2023/10/01 07:44:08;;;;;;;9.63;3.83;;;;;;;14.58;55.36;101328.53;21079213;28;20211;-82
2023/10/01 07:54:11;;;;;;;8.68;4.22;;;;;;;14.91;55.36;101328.88;21058425;27;20681;-79
2023/10/01 08:04:50;;;;;;;9.60;5.30;;;;;;;14.83;56.62;101326.03;21068395;28;20502;-79
2023/10/01 08:15:15;;;;;;;9.40;4.93;;;;;;;15.60;54.27;101330.75;21060875;28;20227;-80
2023/10/01 08:25:08;;;;;;;9.32;4.38;;;;;;;16.08;53.70;101324.75;21059833;28;20283;-80
2023/10/01 08:35:23;;;;;;;8.40;4.28;;;;;;;15.58;55.17;101330.28;21048941;28;20222;-80
2023/10/01 08:45:37;;;;;;;9.48;4.78;;;;;;;16.58;52.66;101321.94;21062505;28;20203;-81
2023/10/01 08:56:04;;;;;;;15.77;7.78;;;;;;;16.74;53.76;101330.69;21050996;28;20287;-80
2023/10/01 09:06:05;;;;;;;9.82;5.07;;;;;;;16.44;54.03;101339.22;21062639;28;20240;-84
2023/10/01 09:16:12;;;;;;;10.75;4.88;;;;;;;17.45;50.82;101333.34;21061181;28;20329;-81
2023/10/01 09:26:14;;;;;;;10.60;5.10;;;;;;;17.44;51.45;101323.16;21043058;28;20198;-87
2023/10/01 09:36:35;;;;;;;10.73;4.15;;;;;;;17.69;51.36;101332.56;21035879;28;20515;-80
2023/10/01 09:46:38;;;;;;;10.93;5.22;;;;;;;17.28;51.88;101313.66;21025122;28;20544;-85
2023/10/01 09:56:46;;;;;;;9.50;4.55;;;;;;;18.51;49.60;101310.50;21047209;28;20231;-81
2023/10/01 10:06:59;;;;;;;10.00;4.30;;;;;;;17.54;51.60;101302.78;21024088;28;20243;-86
2023/10/01 10:17:07;;;;;;;10.25;5.30;;;;;;;18.93;49.15;101297.59;21044184;28;20219;-81
2023/10/01 10:27:09;;;;;;;11.30;5.05;;;;;;;17.80;51.19;101294.75;21041276;28;20195;-80
2023/10/01 10:37:47;;;;;;;9.68;4.55;;;;;;;17.91;52.02;101284.56;21027552;28;20222;-80
2023/10/01 10:48:08;;;;;;;13.02;5.03;;;;;;;18.06;51.22;101287.88;21021016;28;20366;-79
2023/10/01 10:58:12;;;;;;;12.90;5.47;;;;;;;18.55;50.17;101289.50;21032249;28;20321;-78
2023/10/01 11:08:25;;;;;;;12.90;6.20;;;;;;;18.70;50.53;101292.81;21049530;28;20195;-80
2023/10/01 11:18:28;;;;;;;12.43;5.20;;;;;;;18.92;49.69;101277.97;21044082;28;20226;-82
2023/10/01 11:28:41;;;;;;;11.68;5.97;;;;;;;19.70;48.44;101268.75;21026025;28;20198;-79
2023/10/01 11:38:46;;;;;;;12.98;5.32;;;;;;;19.50;47.84;101275.53;21016567;28;20303;-78
2023/10/01 11:49:03;;;;;;;11.60;5.10;;;;;;;19.58;47.70;101272.50;21032600;28;20280;-82
2023/10/01 11:59:08;;;;;;;11.45;5.70;;;;;;;19.84;46.94;101254.00;21021654;28;20295;-79
2023/10/01 12:09:10;;;;;;;14.23;5.97;;;;;;;19.64;47.29;101235.94;21065100;28;20267;-78
2023/10/01 12:19:24;;;;;;;12.00;5.50;;;;;;;19.91;46.83;101222.72;21061562;28;20218;-80
2023/10/01 12:29:42;;;;;;;12.00;5.72;;;;;;;20.45;45.94;101205.63;21065180;28;20305;-80
2023/10/01 12:39:50;;;;;;;11.60;5.45;;;;;;;19.66;46.28;101190.72;21070257;28;20222;-82
2023/10/01 12:49:58;;;;;;;17.92;6.50;;;;;;;20.87;44.58;101179.16;21074807;28;20309;-84
2023/10/01 13:10:18;;;;;;;11.75;5.95;;;;;;;20.27;44.08;101195.81;21015806;28;20210;-80
2023/10/01 13:20:23;;;;;;;11.27;6.53;;;;;;;21.54;42.64;101163.22;21039034;28;20206;-80
2023/10/01 13:30:25;;;;;;;16.38;7.65;;;;;;;20.53;44.54;101158.81;21036628;28;20484;-80
2023/10/01 13:40:32;;;;;;;13.65;6.97;;;;;;;20.77;44.22;101151.16;21030562;28;20202;-80
2023/10/01 14:11:27;;;;;;;13.90;6.70;;;;;;;21.22;43.99;101119.72;21045142;28;20219;-80
2023/10/01 14:21:30;;;;;;;10.27;6.70;;;;;;;20.95;44.89;101118.81;21058774;28;20217;-79
2023/10/01 14:31:49;;;;;;;13.68;6.63;;;;;;;20.53;45.36;101101.63;21059690;28;20226;-81
2023/10/01 14:41:52;;;;;;;13.75;6.15;;;;;;;21.37;44.57;101100.75;21073064;28;20198;-80
2023/10/01 14:51:56;;;;;;;15.05;6.35;;;;;;;20.56;46.15;101098.03;21049610;28;20280;-80
2023/10/01 15:01:59;;;;;;;13.13;6.72;;;;;;;20.97;44.99;101098.41;21071830;28;20192;-80
2023/10/01 15:12:02;;;;;;;12.57;6.40;;;;;;;20.88;45.60;101078.63;21091237;28;20645;-80
2023/10/01 15:22:08;;;;;;;13.23;6.90;;;;;;;20.79;45.84;101088.66;21071957;28;20195;-79
2023/10/01 15:32:16;;;;;;;13.27;6.88;;;;;;;20.70;44.29;101094.63;21067717;28;20566;-81
2023/10/01 15:42:19;;;;;;;11.90;6.68;;;;;;;20.40;45.50;101074.41;21055794;28;20195;-79
2023/10/01 15:52:21;;;;;;;13.75;7.10;;;;;;;20.85;45.28;101072.84;21070309;28;20255;-80
2023/10/01 16:02:24;;;;;;;13.35;6.72;;;;;;;20.77;45.37;101054.72;21069316;28;20247;-80
2023/10/01 16:12:26;;;;;;;14.10;7.13;;;;;;;20.72;45.98;101053.00;21059613;28;20216;-80
2023/10/01 16:22:30;;;;;;;20.63;9.50;;;;;;;20.51;47.44;101046.88;21062989;28;20214;-81
2023/10/01 16:32:31;;;;;;;11.23;7.32;;;;;;;20.68;47.68;101051.28;21059902;28;20267;-80
2023/10/01 16:42:44;;;;;;;13.50;7.88;;;;;;;20.36;48.99;101050.66;21066756;28;20617;-79
2023/10/01 16:52:46;;;;;;;12.18;7.00;;;;;;;20.26;50.18;101045.56;21058181;28;20710;-79
2023/10/01 17:02:49;;;;;;;12.60;6.72;;;;;;;20.24;50.97;101045.94;21060031;28;20195;-79
2023/10/01 17:12:50;;;;;;;14.07;6.75;;;;;;;19.40;53.37;101059.16;21059241;28;20225;-80
2023/10/01 17:23:01;;;;;;;15.52;7.10;;;;;;;19.63;51.96;101048.69;21058486;28;20201;-80
2023/10/01 17:33:05;;;;;;;15.05;8.23;;;;;;;19.59;51.92;101047.78;21054344;28;20304;-80
2023/10/01 17:43:08;;;;;;;13.30;7.03;;;;;;;19.50;52.79;101047.16;21063974;28;20281;-79
2023/10/01 17:53:14;;;;;;;10.10;6.43;;;;;;;19.37;53.39;101051.31;21069012;28;20227;-79
2023/10/01 18:03:19;;;;;;;14.32;7.82;;;;;;;18.95;55.22;101069.03;21068713;28;20294;-80
2023/10/01 18:13:22;;;;;;;14.77;7.70;;;;;;;19.04;54.97;101066.00;21053660;28;20330;-81
2023/10/01 18:23:26;;;;;;;12.18;7.25;;;;;;;18.68;56.29;101069.97;21057777;28;20657;-81
2023/10/01 18:33:29;;;;;;;12.65;6.63;;;;;;;19.17;54.50;101079.78;21074731;28;20272;-80
2023/10/01 18:43:32;;;;;;;13.35;6.25;;;;;;;18.64;57.19;101072.69;21081736;28;20209;-79
2023/10/01 18:53:37;;;;;;;14.35;7.30;;;;;;;18.58;57.43;101065.56;21082590;28;20268;-80
2023/10/01 19:03:46;;;;;;;13.05;6.90;;;;;;;18.14;59.78;101062.75;21080213;28;20281;-79
2023/10/01 19:13:51;;;;;;;11.98;6.90;;;;;;;18.24;59.34;101058.53;21080080;28;20221;-81
2023/10/01 19:23:55;;;;;;;11.05;6.72;;;;;;;17.74;61.90;101050.53;21074669;28;20203;-81
2023/10/01 19:33:58;;;;;;;12.45;6.78;;;;;;;17.50;62.65;101048.56;21070017;28;20226;-81
2023/10/01 19:44:07;;;;;;;11.32;7.00;;;;;;;17.10;64.08;101060.69;21084877;28;20201;-80
2023/10/01 19:54:12;;;;;;;14.35;7.10;;;;;;;17.36;62.90;101068.88;21069023;28;20266;-81
2023/10/01 20:04:15;;;;;;;14.15;7.95;;;;;;;17.11;64.38;101059.50;21072477;28;20201;-80
2023/10/01 20:14:17;;;;;;;13.98;7.45;;;;;;;17.21;61.41;101041.94;21070580;28;20309;-79
2023/10/01 20:24:22;;;;;;;11.65;6.18;;;;;;;17.74;58.09;101022.06;21061077;28;20220;-80
2023/10/01 20:34:24;;;;;;;9.15;5.78;;;;;;;17.86;57.69;101019.16;21055681;28;20228;-79
2023/10/01 20:44:27;;;;;;;11.88;6.03;;;;;;;18.00;57.23;101013.09;21063312;28;20472;-80
2023/10/01 20:54:32;;;;;;;10.90;6.72;;;;;;;17.84;57.47;101022.38;21072589;28;20222;-80
2023/10/01 21:04:35;;;;;;;12.65;5.78;;;;;;;18.20;56.36;101021.38;21049689;28;20198;-80
2023/10/01 21:14:38;;;;;;;12.20;5.90;;;;;;;18.44;55.98;101023.28;21046645;28;20746;-80
2023/10/01 21:24:42;;;;;;;12.73;6.22;;;;;;;18.57;56.07;101027.72;21054322;28;20599;-79
2023/10/01 21:34:45;;;;;;;11.90;6.25;;;;;;;18.30;56.29;101025.75;21044171;28;20491;-79
2023/10/01 21:44:49;;;;;;;9.65;5.65;;;;;;;18.15;56.76;101038.75;21042118;28;20269;-79
2023/10/01 21:54:51;;;;;;;13.50;7.20;;;;;;;18.34;56.56;101040.06;21060696;28;20643;-79
2023/10/01 22:04:56;;;;;;;13.57;6.80;;;;;;;17.59;59.01;101035.03;21076763;28;20207;-78
2023/10/01 22:14:58;;;;;;;13.25;6.50;;;;;;;17.59;59.15;101026.47;21086608;28;20685;-78
2023/10/01 22:25:14;;;;;;;13.52;6.65;;;;;;;17.63;59.21;101030.28;21077455;28;20199;-78
2023/10/01 22:35:18;;;;;;;15.07;7.18;;;;;;;17.61;59.57;101021.28;21075857;28;20219;-79
2023/10/01 22:45:37;;;;;;;12.05;6.70;;;;;;;17.24;60.78;101019.69;21062242;28;20224;-78
2023/10/01 22:55:47;;;;;;;11.18;6.13;;;;;;;16.89;61.80;101017.31;21081780;28;20225;-78
2023/10/01 23:05:51;;;;;;;10.75;6.30;;;;;;;17.04;61.09;101008.06;21069219;28;20195;-78
2023/10/01 23:16:01;;;;;;;10.90;6.72;;;;;;;17.24;60.83;101008.31;21079124;28;20671;-80
2023/10/01 23:26:27;;;;;;;12.43;6.03;;;;;;;16.94;61.36;101014.22;21093314;28;20213;-78
2023/10/01 23:36:37;;;;;;;12.10;6.15;;;;;;;17.46;59.30;101016.31;21083033;28;20226;-78
2023/10/01 23:46:40;;;;;;;11.65;6.20;;;;;;;17.13;60.10;101020.16;21075633;28;20190;-78
2023/10/01 23:56:41;;;;;;;13.40;6.55;;;;;;;17.25;59.96;101027.88;21071906;28;20661;-79
